^^
Grace C. Lehan Memorial Weather Station Historical Data
Daily Summary for September 7, 2021 Units:  Both    English   Metric
Daily Weekly Monthly Yearly
  High: Low: Average:
Temperature: 37.4 °F /  3 °C 28.7 °F /  -1.8 °C 30.9 °F /  -0.6 °C
Dew Point: 35.3 °F /  1.8 °C 26.9 °F /  -2.8 °C 28.7 °F /  -1.8 °C
Humidity: 95% 84% 91%
Wind Speed: 0mph /  0km/h - 0mph /  0km/h
Wind Gust: 0mph /  0km/h - -
Wind- -
Pressure: 30.26 in /  1024.6 hPa 30.22 in /  1023.2 hPa -
Precipitation: 0.00 in /  0 mm    
 
 
Tabular Data for September 7, 2021
Time Temperature Dew Point Pressure Wind Wind Speed Wind Gust Humidity Rainfall Rate (Hourly) solar
00:00 35.2 °F /  1.8 °C 30.9 °F /  -0.6 °C 30.26in /  1024.6hPa Calm     84% 0.00in /  0mm 0 W/m2
00:09 35 °F /  1.7 °C 30.8 °F /  -0.7 °C 30.26in /  1024.6hPa Calm     84.7% 0.00in /  0mm 0 W/m2
00:14 34.7 °F /  1.5 °C 30.4 °F /  -0.9 °C 30.26in /  1024.6hPa Calm     84% 0.00in /  0mm 0 W/m2
00:19 34.4 °F /  1.3 °C 30.3 °F /  -0.9 °C 30.26in /  1024.6hPa Calm     84.8% 0.00in /  0mm 0 W/m2
00:24 34.1 °F /  1.2 °C 30.1 °F /  -1.1 °C 30.26in /  1024.6hPa Calm     85% 0.00in /  0mm 0 W/m2
00:29 33.9 °F /  1.1 °C 30.1 °F /  -1.1 °C 30.25in /  1024.3hPa Calm     85.8% 0.00in /  0mm 0 W/m2
00:34 33.8 °F /  1 °C 30.4 °F /  -0.9 °C 30.25in /  1024.3hPa Calm     87.1% 0.00in /  0mm 0 W/m2
00:39 33.7 °F /  0.9 °C 30.2 °F /  -1 °C 30.25in /  1024.3hPa Calm     86.8% 0.00in /  0mm 0 W/m2
00:44 33.6 °F /  0.9 °C 30.1 °F /  -1.1 °C 30.25in /  1024.3hPa Calm     87% 0.00in /  0mm 0 W/m2
00:49 33.5 °F /  0.8 °C 30 °F /  -1.1 °C 30.25in /  1024.3hPa Calm     87% 0.00in /  0mm 0 W/m2
00:54 33.3 °F /  0.7 °C 29.9 °F /  -1.2 °C 30.25in /  1024.3hPa Calm     87% 0.00in /  0mm 0 W/m2
00:59 33.1 °F /  0.6 °C 29.7 °F /  -1.3 °C 30.25in /  1024.3hPa Calm     87% 0.00in /  0mm 0 W/m2
01:04 33 °F /  0.6 °C 29.6 °F /  -1.3 °C 30.25in /  1024.3hPa Calm     87.1% 0.00in /  0mm 0 W/m2
01:09 32.9 °F /  0.5 °C 29.7 °F /  -1.3 °C 30.25in /  1024.3hPa Calm     88% 0.00in /  0mm 0 W/m2
01:14 32.8 °F /  0.4 °C 29.6 °F /  -1.3 °C 30.25in /  1024.3hPa Calm     88% 0.00in /  0mm 0 W/m2
01:19 32.7 °F /  0.4 °C 29.6 °F /  -1.3 °C 30.25in /  1024.3hPa Calm     88.2% 0.00in /  0mm 0 W/m2
01:24 32.6 °F /  0.3 °C 29.8 °F /  -1.2 °C 30.25in /  1024.3hPa Calm     89% 0.00in /  0mm 0 W/m2
01:29 32.6 °F /  0.3 °C 29.7 °F /  -1.3 °C 30.25in /  1024.3hPa Calm     89% 0.00in /  0mm 0 W/m2
01:34 32.5 °F /  0.3 °C 29.7 °F /  -1.3 °C 30.25in /  1024.3hPa Calm     89% 0.00in /  0mm 0 W/m2
01:39 32.5 °F /  0.3 °C 29.6 °F /  -1.3 °C 30.25in /  1024.3hPa Calm     89% 0.00in /  0mm 0 W/m2
01:44 32.4 °F /  0.2 °C 29.5 °F /  -1.4 °C 30.25in /  1024.3hPa Calm     89% 0.00in /  0mm 0 W/m2
01:49 32.4 °F /  0.2 °C 29.5 °F /  -1.4 °C 30.25in /  1024.3hPa Calm     89% 0.00in /  0mm 0 W/m2
01:54 32.3 °F /  0.2 °C 29.4 °F /  -1.4 °C 30.25in /  1024.3hPa Calm     89.1% 0.00in /  0mm 0 W/m2
01:59 32 °F /  0 °C 29.4 °F /  -1.4 °C 30.25in /  1024.3hPa Calm     90% 0.00in /  0mm 0 W/m2
01:00 31.4 °F /  -0.3 °C 29.1 °F /  -1.6 °C 30.25in /  1024.3hPa Calm     91% 0.00in /  0mm 0 W/m2
02:04 31.4 °F /  -0.3 °C 29.1 °F /  -1.6 °C 30.25in /  1024.3hPa Calm     91% 0.00in /  0mm 0 W/m2
02:09 31.3 °F /  -0.4 °C 29 °F /  -1.7 °C 30.25in /  1024.3hPa Calm     91% 0.00in /  0mm 0 W/m2
02:14 31.2 °F /  -0.4 °C 28.9 °F /  -1.7 °C 30.25in /  1024.3hPa Calm     91% 0.00in /  0mm 0 W/m2
02:19 31.2 °F /  -0.4 °C 28.9 °F /  -1.7 °C 30.25in /  1024.3hPa Calm     91% 0.00in /  0mm 0 W/m2
02:24 31.1 °F /  -0.5 °C 28.8 °F /  -1.8 °C 30.25in /  1024.3hPa Calm     91% 0.00in /  0mm 0 W/m2
02:29 31.1 °F /  -0.5 °C 28.8 °F /  -1.8 °C 30.25in /  1024.3hPa Calm     91% 0.00in /  0mm 0 W/m2
02:34 31.1 °F /  -0.5 °C 28.8 °F /  -1.8 °C 30.25in /  1024.3hPa Calm     91% 0.00in /  0mm 0 W/m2
02:39 31 °F /  -0.6 °C 28.7 °F /  -1.8 °C 30.25in /  1024.3hPa Calm     91% 0.00in /  0mm 0 W/m2
02:44 31 °F /  -0.6 °C 28.7 °F /  -1.8 °C 30.25in /  1024.3hPa Calm     91% 0.00in /  0mm 0 W/m2
02:49 30.9 °F /  -0.6 °C 28.6 °F /  -1.9 °C 30.24in /  1023.9hPa Calm     91.3% 0.00in /  0mm 0 W/m2
02:54 30.8 °F /  -0.7 °C 28.7 °F /  -1.8 °C 30.24in /  1023.9hPa Calm     92% 0.00in /  0mm 0 W/m2
02:59 30.7 °F /  -0.7 °C 28.7 °F /  -1.8 °C 30.23in /  1023.6hPa Calm     92% 0.00in /  0mm 0 W/m2
03:04 30.6 °F /  -0.8 °C 28.6 °F /  -1.9 °C 30.24in /  1023.9hPa Calm     92% 0.00in /  0mm 0 W/m2
03:09 30.5 °F /  -0.8 °C 28.5 °F /  -1.9 °C 30.24in /  1023.9hPa Calm     92% 0.00in /  0mm 0 W/m2
03:14 30.5 °F /  -0.8 °C 28.5 °F /  -1.9 °C 30.24in /  1023.9hPa Calm     92% 0.00in /  0mm 0 W/m2
03:19 30.5 °F /  -0.8 °C 28.5 °F /  -1.9 °C 30.24in /  1023.9hPa Calm     92% 0.00in /  0mm 0 W/m2
03:24 30.4 °F /  -0.9 °C 28.4 °F /  -2 °C 30.23in /  1023.6hPa Calm     92% 0.00in /  0mm 0 W/m2
03:29 30.4 °F /  -0.9 °C 28.3 °F /  -2.1 °C 30.23in /  1023.6hPa Calm     92% 0.00in /  0mm 0 W/m2
03:34 30.3 °F /  -0.9 °C 28.3 °F /  -2.1 °C 30.23in /  1023.6hPa Calm     92% 0.00in /  0mm 0 W/m2
03:39 30.3 °F /  -0.9 °C 28.2 °F /  -2.1 °C 30.23in /  1023.6hPa Calm     92% 0.00in /  0mm 0 W/m2
03:44 30.2 °F /  -1 °C 28.2 °F /  -2.1 °C 30.23in /  1023.6hPa Calm     92% 0.00in /  0mm 0 W/m2
03:49 30.1 °F /  -1.1 °C 28.1 °F /  -2.2 °C 30.23in /  1023.6hPa Calm     92% 0.00in /  0mm 0 W/m2
03:54 30 °F /  -1.1 °C 28 °F /  -2.2 °C 30.22in /  1023.2hPa Calm     92% 0.00in /  0mm 0 W/m2
03:59 29.9 °F /  -1.2 °C 27.9 °F /  -2.3 °C 30.23in /  1023.6hPa Calm     92% 0.00in /  0mm 0 W/m2
04:09 29.8 °F /  -1.2 °C 27.8 °F /  -2.3 °C 30.22in /  1023.2hPa Calm     92% 0.00in /  0mm 0 W/m2
04:14 29.8 °F /  -1.2 °C 27.8 °F /  -2.3 °C 30.22in /  1023.2hPa Calm     92% 0.00in /  0mm 0 W/m2
04:19 29.8 °F /  -1.2 °C 27.8 °F /  -2.3 °C 30.22in /  1023.2hPa Calm     92% 0.00in /  0mm 0 W/m2
04:24 29.9 °F /  -1.2 °C 27.8 °F /  -2.3 °C 30.22in /  1023.2hPa Calm     92% 0.00in /  0mm 0 W/m2
04:29 29.9 °F /  -1.2 °C 27.9 °F /  -2.3 °C 30.22in /  1023.2hPa Calm     92.1% 0.00in /  0mm 0 W/m2
04:34 29.8 °F /  -1.2 °C 27.9 °F /  -2.3 °C 30.22in /  1023.2hPa Calm     92.4% 0.00in /  0mm 0 W/m2
04:39 29.7 °F /  -1.3 °C 27.7 °F /  -2.4 °C 30.22in /  1023.2hPa Calm     92% 0.00in /  0mm 0 W/m2
04:44 29.6 °F /  -1.3 °C 27.6 °F /  -2.4 °C 30.22in /  1023.2hPa Calm     92% 0.00in /  0mm 0 W/m2
04:49 29.5 °F /  -1.4 °C 27.5 °F /  -2.5 °C 30.22in /  1023.2hPa Calm     92% 0.00in /  0mm 0 W/m2
04:54 29.4 °F /  -1.4 °C 27.4 °F /  -2.6 °C 30.22in /  1023.2hPa Calm     92% 0.00in /  0mm 0 W/m2
04:59 29.4 °F /  -1.4 °C 27.4 °F /  -2.6 °C 30.22in /  1023.2hPa Calm     92% 0.00in /  0mm 0 W/m2
05:04 29.4 °F /  -1.4 °C 27.4 °F /  -2.6 °C 30.22in /  1023.2hPa Calm     92% 0.00in /  0mm 0 W/m2
05:09 29.4 °F /  -1.4 °C 27.4 °F /  -2.6 °C 30.22in /  1023.2hPa Calm     92% 0.00in /  0mm 0 W/m2
05:14 29.3 °F /  -1.5 °C 27.3 °F /  -2.6 °C 30.22in /  1023.2hPa Calm     92% 0.00in /  0mm 0 W/m2
05:19 29.3 °F /  -1.5 °C 27.3 °F /  -2.6 °C 30.22in /  1023.2hPa Calm     92% 0.00in /  0mm 0 W/m2
05:24 29.2 °F /  -1.6 °C 27.2 °F /  -2.7 °C 30.22in /  1023.2hPa Calm     92% 0.00in /  0mm 0 W/m2
05:29 29.2 °F /  -1.6 °C 27.2 °F /  -2.7 °C 30.22in /  1023.2hPa Calm     92% 0.00in /  0mm 0 W/m2
05:34 29.2 °F /  -1.6 °C 27.4 °F /  -2.6 °C 30.22in /  1023.2hPa Calm     93% 0.00in /  0mm 0 W/m2
05:39 29.2 °F /  -1.6 °C 27.4 °F /  -2.6 °C 30.22in /  1023.2hPa Calm     93% 0.00in /  0mm 0 W/m2
05:44 29.1 °F /  -1.6 °C 27.3 °F /  -2.6 °C 30.22in /  1023.2hPa Calm     93% 0.00in /  0mm 0 W/m2
05:49 29.1 °F /  -1.6 °C 27.3 °F /  -2.6 °C 30.22in /  1023.2hPa Calm     93% 0.00in /  0mm 0 W/m2
05:54 29.1 °F /  -1.6 °C 27.3 °F /  -2.6 °C 30.22in /  1023.2hPa Calm     93% 0.00in /  0mm 0 W/m2
05:59 29 °F /  -1.7 °C 27.2 °F /  -2.7 °C 30.22in /  1023.2hPa Calm     93% 0.00in /  0mm 0 W/m2
06:04 29 °F /  -1.7 °C 27.2 °F /  -2.7 °C 30.22in /  1023.2hPa Calm     93% 0.00in /  0mm 0 W/m2
06:09 29 °F /  -1.7 °C 27.2 °F /  -2.7 °C 30.22in /  1023.2hPa Calm     93% 0.00in /  0mm 0 W/m2
06:14 29 °F /  -1.7 °C 27.2 °F /  -2.7 °C 30.22in /  1023.2hPa Calm     93% 0.00in /  0mm 0 W/m2
06:19 29 °F /  -1.7 °C 27.2 °F /  -2.7 °C 30.23in /  1023.6hPa Calm     93% 0.00in /  0mm 0 W/m2
06:24 28.9 °F /  -1.7 °C 27.2 °F /  -2.7 °C 30.23in /  1023.6hPa Calm     93% 0.00in /  0mm 0 W/m2
06:29 28.8 °F /  -1.8 °C 27.1 °F /  -2.7 °C 30.23in /  1023.6hPa Calm     93% 0.00in /  0mm 0 W/m2
06:34 28.8 °F /  -1.8 °C 27 °F /  -2.8 °C 30.23in /  1023.6hPa Calm     93% 0.00in /  0mm 0 W/m2
06:39 28.7 °F /  -1.8 °C 26.9 °F /  -2.8 °C 30.22in /  1023.2hPa Calm     93% 0.00in /  0mm 7 W/m2
06:44 28.7 °F /  -1.8 °C 27 °F /  -2.8 °C 30.23in /  1023.6hPa Calm     93% 0.00in /  0mm 11 W/m2
06:49 28.8 °F /  -1.8 °C 27 °F /  -2.8 °C 30.23in /  1023.6hPa Calm     93% 0.00in /  0mm 12 W/m2
06:54 28.8 °F /  -1.8 °C 27 °F /  -2.8 °C 30.23in /  1023.6hPa Calm     93% 0.00in /  0mm 18 W/m2
06:59 28.8 °F /  -1.8 °C 27 °F /  -2.8 °C 30.24in /  1023.9hPa Calm     93% 0.00in /  0mm 21 W/m2
07:04 28.9 °F /  -1.7 °C 27.1 °F /  -2.7 °C 30.23in /  1023.6hPa Calm     93% 0.00in /  0mm 18 W/m2
07:09 29 °F /  -1.7 °C 27.2 °F /  -2.7 °C 30.23in /  1023.6hPa Calm     93% 0.00in /  0mm 19 W/m2
07:14 29.2 °F /  -1.6 °C 27.5 °F /  -2.5 °C 30.24in /  1023.9hPa Calm     93% 0.00in /  0mm 14 W/m2
07:19 29.4 °F /  -1.4 °C 27.8 °F /  -2.3 °C 30.24in /  1023.9hPa Calm     93.5% 0.00in /  0mm 16 W/m2
07:24 29.6 °F /  -1.3 °C 28.1 °F /  -2.2 °C 30.24in /  1023.9hPa Calm     94% 0.00in /  0mm 18 W/m2
07:29 29.7 °F /  -1.3 °C 28.2 °F /  -2.1 °C 30.24in /  1023.9hPa Calm     93.9% 0.00in /  0mm 19 W/m2
07:34 29.8 °F /  -1.2 °C 28 °F /  -2.2 °C 30.24in /  1023.9hPa Calm     93% 0.00in /  0mm 21 W/m2
07:39 29.8 °F /  -1.2 °C 28 °F /  -2.2 °C 30.24in /  1023.9hPa Calm     93% 0.00in /  0mm 30 W/m2
07:44 29.7 °F /  -1.3 °C 27.9 °F /  -2.3 °C 30.23in /  1023.6hPa Calm     93% 0.00in /  0mm 37 W/m2
07:49 29.8 °F /  -1.2 °C 28 °F /  -2.2 °C 30.24in /  1023.9hPa Calm     93% 0.00in /  0mm 63 W/m2
07:54 30 °F /  -1.1 °C 28.3 °F /  -2.1 °C 30.24in /  1023.9hPa Calm     93.1% 0.00in /  0mm 79 W/m2
07:59 30.3 °F /  -0.9 °C 28.8 °F /  -1.8 °C 30.23in /  1023.6hPa Calm     94% 0.00in /  0mm 181 W/m2
08:00 30.5 °F /  -0.8 °C 29 °F /  -1.7 °C 30.23in /  1023.6hPa Calm     94% 0.00in /  0mm 181 W/m2
08:09 31.8 °F /  -0.1 °C 30.3 °F /  -0.9 °C 30.23in /  1023.6hPa Calm     94.2% 0.00in /  0mm 229 W/m2
08:14 32.7 °F /  0.4 °C 31.3 °F /  -0.4 °C 30.23in /  1023.6hPa Calm     94.7% 0.00in /  0mm 267 W/m2
08:19 33.5 °F /  0.8 °C 32.2 °F /  0.1 °C 30.23in /  1023.6hPa Calm     95% 0.00in /  0mm 302 W/m2
08:24 34.5 °F /  1.4 °C 33.3 °F /  0.7 °C 30.23in /  1023.6hPa Calm     95% 0.00in /  0mm 311 W/m2
08:29 35.6 °F /  2 °C 34.2 °F /  1.2 °C 30.23in /  1023.6hPa Calm     94.6% 0.00in /  0mm 325 W/m2
08:34 36.7 °F /  2.6 °C 35 °F /  1.7 °C 30.23in /  1023.6hPa Calm     93.7% 0.00in /  0mm 343 W/m2
08:38 37.4 °F /  3 °C 35.3 °F /  1.8 °C 30.23in /  1023.6hPa Calm     92.1% 0.00in /  0mm 334 W/m2
Hartford County Weather
Compliments of Weather Underground - 4 mb